12/1/2020 - 12/31/2020

Pierce College

Hourly Data | America/Los_Angeles
as of 5/7/21 12:55 PM PDT
Date & Time Temp Max (°F) Temp Min (°F) RH (%) Dew Pt (°F) Latest Rain (In) Soil Temp (°F) Soil Moist (%) Wind Spd (mph) Wind Dir (°) Wind Gust (mph) Leaf Wet Raw (mV) Net Radiation (W/m²) Evap Pan Max Wind (mph) Evap Pan H2O Max Temp (°F) Evap Pan Level (In)
12/31/20 - 2300 56.2 55.2 32 26.5 0.00 55.5 42.6 3.3 N | 8 8.7 266 -76 4.4 45.1 3.7
12/31/20 - 2200 55.4 54.3 34 26.9 0.00 55.3 42.7 2.2 N | 354 6.9 266 -76 4.7 45.8 3.7
12/31/20 - 2100 54.9 54.0 34 26.5 0.00 55.4 42.7 1.4 NNW | 334 6.4 266 -76 3.9 47.5 3.7
12/31/20 - 2000 55.8 54.3 33 26.4 0.00 55.2 42.6 1.6 N | 354 5.4 266 -77 3.3 49.0 3.7
12/31/20 - 1900 56.4 55.4 33 27.1 0.00 55.4 42.6 1.5 N | 350 5.9 265 -78 7.0 51.0 3.7
12/31/20 - 1800 58.3 56.4 33 28.4 0.00 55.4 42.6 1.7 WNW | 295 5.6 266 -80 5.3 54.5 3.7
12/31/20 - 1700 59.5 58.0 32 29.1 0.00 55.1 42.6 2.6 N | 351 8.0 265 -64 5.1 60.4 3.7
12/31/20 - 1600 62.1 59.2 31 30.2 0.00 54.9 42.6 2.4 NNW | 341 9.2 264 33 7.2 66.5 3.7
12/31/20 - 1500 63.6 61.9 29 29.9 0.00 54.6 42.4 2.3 N | 350 7.3 263 164 6.5 67.2 3.7
12/31/20 - 1400 64.4 62.1 29 30.3 0.00 54.1 42.2 2.6 NNW | 346 8.9 263 253 6.0 66.8 3.7
12/31/20 - 1300 63.4 61.7 32 32.0 0.00 54.2 42.1 2.2 NNW | 339 8.5 264 303 7.9 65.3 3.7
12/31/20 - 1200 62.8 60.0 34 32.5 0.00 54.1 41.9 2.2 NW | 319 13.2 264 297 11.2 62.9 3.7
12/31/20 - 1100 61.5 59.0 35 32.2 0.00 54.2 41.9 2.3 NNW | 338 16.8 264 248 10.3 55.5 3.7
12/31/20 - 1000 59.3 54.1 37 31.3 0.00 54.4 41.8 2.5 WSW | 249 7.8 264 189 8.3 45.8 3.7
12/31/20 - 0900 54.3 39.3 50 29.2 0.00 54.6 41.9 1.7 SW | 235 7.7 265 98 6.1 35.6 3.7
12/31/20 - 0800 39.4 34.3 64 25.4 0.00 54.7 41.9 0.9 SSE | 163 4.4 269 -40 2.3 31.5 3.7
12/31/20 - 0700 35.6 34.1 66 24.7 0.00 54.8 42.0 0.8 SSE | 163 3.5 269 -59 3.0 31.7 3.7
12/31/20 - 0600 37.0 35.3 65 25.2 0.00 55.1 42.0 0.9 SSE | 163 2.8 269 -63 3.0 32.0 3.7
12/31/20 - 0500 37.2 35.2 65 25.4 0.00 55.1 42.0 0.6 SSE | 159 2.3 269 -61 1.7 34.0 3.7
12/31/20 - 0400 38.6 36.9 59 24.9 0.00 55.3 42.1 0.8 S | 170 2.5 268 -60 1.9 35.7 3.7
12/31/20 - 0300 40.0 37.6 58 25.4 0.00 55.4 42.1 0.4 SSE | 167 1.8 268 -60 2.1 38.0 3.7
12/31/20 - 0200 43.3 39.9 52 25.0 0.00 55.6 42.2 0.3 SSE | 151 2.3 267 -62 2.2 40.0 3.7
12/31/20 - 0100 44.6 43.0 48 25.3 0.00 55.7 42.2 0.7 SSE | 163 3.0 266 -49 2.3 40.4 3.7
12/31/20 - 0000 44.6 43.2 45 24.2 0.00 55.6 42.2 0.5 SSW | 204 2.0 266 -39 1.8 41.5 3.7
12/30/20 - 2300 46.9 43.3 40 22.2 0.00 55.7 42.2 0.6 SSE | 154 2.6 266 -56 2.3 43.3 3.7
12/30/20 - 2200 52.1 47.0 32 20.3 0.00 55.8 42.2 1.1 S | 185 4.8 266 -70 2.7 45.1 3.7
12/30/20 - 2100 51.7 48.8 30 20.4 0.00 55.7 42.2 1.4 SSW | 196 5.5 265 -70 3.5 46.9 3.7
12/30/20 - 2000 61.0 51.0 21 16.4 0.00 55.6 42.2 1.9 S | 183 11.0 264 -76 7.5 51.2 3.7
12/30/20 - 1900 56.4 53.1 30 24.0 0.00 55.6 42.2 1.7 S | 185 5.2 264 -76 4.6 55.0 3.7
12/30/20 - 1800 64.1 56.6 19 17.2 0.00 55.4 42.2 0.6 N | 349 2.9 264 -84 2.0 60.0 3.7
12/30/20 - 1700 66.3 64.0 12 11.0 0.00 55.0 42.1 1.8 N | 9 6.5 262 -33 3.3 63.6 3.7
12/30/20 - 1600 70.1 66.1 10 9.0 0.00 54.9 42.0 1.9 N | 8 6.9 262 23 3.3 66.5 3.7
12/30/20 - 1500 70.3 69.0 9 7.8 0.00 54.7 41.8 1.7 NNW | 338 7.7 261 152 6.3 67.8 3.7
12/30/20 - 1400 70.2 68.8 10 9.5 0.00 52.4 41.7 2.2 N | 351 9.3 261 223 5.3 68.2 3.7
12/30/20 - 1300 69.8 67.8 10 9.7 0.00 54.4 41.5 2.9 N | 352 8.9 261 304 5.5 67.3 3.7
12/30/20 - 1200 69.2 65.7 13 14.5 0.00 54.2 41.4 1.9 N | 358 6.8 262 295 7.2 64.6 3.7
12/30/20 - 1100 66.3 63.2 14 15.1 0.00 54.2 41.2 1.8 ESE | 117 7.8 262 245 6.8 57.9 3.7
12/30/20 - 1000 63.2 60.6 15 13.8 0.00 54.4 41.2 2.1 SSE | 158 6.4 262 178 4.7 48.7 3.7
12/30/20 - 0900 60.9 54.5 19 16.4 0.00 54.6 41.1 1.0 S | 182 7.6 263 70 3.8 42.6 3.7
12/30/20 - 0800 54.6 51.2 22 14.9 0.00 54.4 41.2 1.7 SSE | 162 7.4 265 -55 4.9 40.0 3.7
12/30/20 - 0700 54.6 53.7 20 13.5 0.00 54.8 41.1 1.4 NNW | 336 5.1 265 -78 4.4 40.0 3.7
12/30/20 - 0600 54.2 52.3 21 14.0 0.00 54.7 41.2 1.2 NW | 320 5.2 265 -76 3.5 40.9 3.7
12/30/20 - 0500 56.7 51.7 21 14.6 0.00 55.0 41.1 1.9 W | 274 9.6 266 -77 7.1 41.3 3.7
12/30/20 - 0400 56.9 55.4 19 14.2 0.00 54.9 41.1 2.8 NW | 304 14.5 265 -81 11.6 41.5 3.7
12/30/20 - 0300 56.1 47.0 23 16.8 0.00 55.2 41.1 2.3 WSW | 246 9.8 266 -76 6.5 41.8 3.7
12/30/20 - 0200 52.9 47.1 32 21.9 0.00 55.1 41.2 1.9 S | 187 6.1 266 -74 4.6 43.2 3.7
12/30/20 - 0100 56.0 52.6 28 21.7 0.00 55.3 41.1 3.1 WSW | 242 7.5 266 -79 5.6 43.7 3.7
12/30/20 - 0000 56.2 55.3 27 22.2 0.00 55.2 41.1 2.4 WNW | 291 8.4 266 -83 7.9 43.1 3.7
12/29/20 - 2300 55.8 51.3 31 24.4 0.00 55.4 41.1 2.3 WNW | 300 8.3 266 -82 8.1 45.0 3.7
12/29/20 - 2200 55.5 52.5 33 26.0 0.00 55.4 41.0 2.1 WNW | 285 8.0 266 -82 4.8 44.3 3.7
12/29/20 - 2100 55.1 52.9 35 27.1 0.00 55.5 41.0 1.7 W | 280 7.1 266 -80 5.7 46.6 3.7
12/29/20 - 2000 54.0 50.8 43 30.3 0.00 55.4 41.0 1.4 SW | 232 5.3 267 -78 3.1 49.4 3.7
12/29/20 - 1900 54.4 52.1 44 32.1 0.00 55.6 40.9 1.5 WSW | 258 5.5 267 -80 4.3 52.9 3.7
12/29/20 - 1800 55.7 54.0 43 32.8 0.00 55.2 40.9 1.4 NNE | 20 7.9 267 -82 5.2 56.6 3.7
12/29/20 - 1700 58.8 55.1 41 33.6 0.00 55.0 40.8 1.4 NNW | 331 7.3 266 -62 4.9 61.6 3.7
12/29/20 - 1600 60.6 58.2 38 34.3 0.00 54.8 40.7 1.5 NNW | 329 7.6 266 50 6.5 64.8 3.7
12/29/20 - 1500 61.8 59.6 37 34.2 0.00 54.9 40.5 2.1 NNW | 328 6.8 264 195 7.3 65.5 3.7
12/29/20 - 1400 61.2 59.3 38 34.9 0.00 54.7 40.4 2.4 NW | 326 8.4 265 265 9.4 65.7 3.7
12/29/20 - 1300 60.4 58.5 41 36.0 0.00 54.5 40.2 2.9 N | 352 11.7 266 307 6.4 64.8 3.7
12/29/20 - 1200 59.0 57.4 38 32.8 0.00 54.5 40.1 4.7 NNE | 14 11.9 266 315 5.1 62.3 3.7
12/29/20 - 1100 57.6 55.3 45 35.6 0.00 54.4 39.9 3.0 NNE | 17 8.8 267 265 5.7 55.2 3.7
12/29/20 - 1000 55.6 51.6 51 35.9 0.00 54.7 39.8 2.7 NNE | 13 8.1 267 195 4.1 47.2 3.7
12/29/20 - 0900 51.8 48.0 57 35.2 0.01 54.8 39.7 3.0 N | 358 8.4 268 143 4.7 42.9 3.7
12/29/20 - 0800 48.2 44.8 64 34.7 0.00 54.9 39.7 2.2 N | 349 8.7 271 13 4.1 40.1 3.7
12/29/20 - 0700 45.0 43.9 69 35.0 0.00 55.0 39.6 2.0 WNW | 288 5.2 271 -4 4.1 39.2 3.7
12/29/20 - 0600 45.8 40.0 71 35.5 0.00 55.2 39.6 2.1 W | 272 5.9 272 -4 4.1 39.0 3.7
12/29/20 - 0500 45.2 39.5 78 35.7 0.00 55.5 39.5 1.0 SE | 142 3.1 296 -5 2.7 39.1 3.7
12/29/20 - 0400 45.5 43.6 74 36.5 0.00 55.5 39.5 1.2 NW | 320 4.3 272 -4 4.0 38.8 3.7
12/29/20 - 0300 44.6 42.5 77 37.0 0.00 55.6 39.4 2.4 W | 267 4.3 288 -4 3.6 38.3 3.7
12/29/20 - 0200 42.7 38.7 93 38.5 0.00 55.9 39.3 1.6 WSW | 245 6.7 318 -5 5.2 38.4 3.7
12/29/20 - 0100 40.7 36.9 94 36.9 0.00 56.1 39.2 1.2 S | 185 6.6 365 -6 5.2 39.1 3.7
12/29/20 - 0000 40.4 37.9 94 37.2 0.00 56.1 39.2 0.7 S | 175 3.8 368 -6 2.4 41.1 3.7
12/28/20 - 2300 40.4 39.0 94 38.1 0.00 56.3 39.1 0.7 SW | 219 3.4 401 -6 2.3 42.7 3.7
12/28/20 - 2200 40.9 39.2 94 38.2 0.00 56.3 39.0 0.5 S | 169 2.5 369 -6 1.5 44.7 3.7
12/28/20 - 2100 42.8 40.6 93 39.7 0.00 56.4 38.8 0.4 S | 174 1.9 388 -6 1.9 46.1 3.7
12/28/20 - 2000 43.7 42.7 93 41.4 0.00 56.5 38.6 0.5 SSE | 149 3.0 384 -5 1.6 46.9 3.7
12/28/20 - 1900 44.4 43.4 93 41.9 0.00 56.6 38.1 0.0 N | 0 0.0 381 -4 0.0 48.0 3.7
12/28/20 - 1800 44.6 44.0 93 42.3 0.00 56.6 37.4 0.7 ENE | 58 4.6 394 -2 2.4 48.1 3.7
12/28/20 - 1700 45.1 44.1 93 42.7 0.01 56.6 36.0 1.8 ENE | 64 6.3 406 13 3.8 48.3 3.7
12/28/20 - 1600 45.4 44.6 93 43.2 0.14 56.8 35.7 2.2 NE | 48 5.5 475 23 2.5 47.9 3.7
12/28/20 - 1500 45.6 44.7 92 43.2 0.23 55.0 35.1 1.4 NNE | 13 7.4 565 16 5.6 47.0 3.7
12/28/20 - 1400 44.8 43.9 92 42.1 0.25 55.8 34.0 1.2 ENE | 78 5.2 527 20 5.5 46.8 3.7
12/28/20 - 1300 44.7 43.7 90 41.4 0.26 56.8 32.9 1.1 N | 8 5.4 470 15 4.9 49.9 3.7
12/28/20 - 1200 48.9 44.0 84 40.3 0.18 58.3 31.6 1.3 E | 82 6.8 501 35 6.5 55.3 3.7
12/28/20 - 1100 50.0 48.4 79 43.2 0.00 58.3 30.3 2.3 SE | 132 8.0 281 132 4.0 55.8 3.7
12/28/20 - 1000 49.7 48.2 86 44.7 0.00 58.4 30.3 1.0 SE | 126 3.4 284 152 2.5 52.4 3.7
12/28/20 - 0900 49.2 44.9 93 44.6 0.00 58.5 30.4 0.3 ENE | 64 2.7 287 116 1.7 47.7 3.7
12/28/20 - 0800 45.2 43.4 93 42.5 0.00 58.7 30.5 0.4 ESE | 103 2.9 355 19 2.7 45.5 3.7
12/28/20 - 0700 44.7 43.1 92 41.8 0.00 59.1 30.7 0.2 SE | 141 1.8 391 -5 0.9 46.8 3.7
12/28/20 - 0600 46.5 44.0 93 42.8 0.18 59.0 30.8 1.3 SSE | 149 9.7 487 -2 6.2 48.4 3.7
12/28/20 - 0500 46.5 45.8 93 44.2 0.04 59.0 29.8 0.5 NE | 41 3.1 444 -3 1.1 48.0 3.7
12/28/20 - 0400 46.1 45.4 92 43.6 0.01 59.3 29.4 0.5 ENE | 65 2.5 447 -3 1.4 47.8 3.7
12/28/20 - 0300 46.4 45.6 91 43.6 0.03 59.3 29.3 0.3 E | 90 2.5 392 -4 1.8 47.4 3.7
12/28/20 - 0200 46.2 45.1 90 42.9 0.02 59.2 29.3 0.3 E | 79 2.8 394 -4 1.3 46.8 3.7
12/28/20 - 0100 48.4 44.3 86 41.0 0.19 59.4 28.6 3.3 SSW | 203 13.6 559 -5 11.3 49.7 3.7
12/28/20 - 0000 52.4 48.5 82 45.9 0.12 59.4 26.1 3.5 SSE | 151 21.1 372 -6 17.2 53.2 3.7
12/27/20 - 2300 52.6 51.8 77 45.4 0.00 59.3 25.8 2.0 SSE | 150 7.3 359 -18 5.8 52.7 3.7
12/27/20 - 2200 52.0 50.9 80 45.6 0.00 59.4 25.8 0.6 S | 177 2.7 270 -20 2.4 50.5 3.7
12/27/20 - 2100 51.7 50.8 80 45.2 0.00 59.2 25.8 0.4 SSW | 200 2.4 270 -19 1.6 50.1 3.7
12/27/20 - 2000 52.8 51.6 78 45.7 0.00 59.3 25.8 1.4 SSW | 210 4.3 270 -26 2.8 51.7 3.7
12/27/20 - 1900 53.8 51.8 77 45.3 0.00 59.4 25.8 1.7 S | 185 3.7 270 -59 2.1 47.6 3.7
12/27/20 - 1800 56.4 53.2 70 45.3 0.00 59.1 25.8 2.0 SW | 217 6.5 269 -65 4.3 54.2 3.7
12/27/20 - 1700 60.4 56.4 62 45.2 0.00 59.0 25.8 3.7 SW | 234 8.8 268 -48 6.3 64.3 3.7
12/27/20 - 1600 68.0 60.3 45 42.4 0.00 60.0 25.8 4.8 SW | 223 10.5 266 59 8.1 75.3 3.7
12/27/20 - 1500 68.8 66.9 27 32.4 0.00 59.7 25.7 2.2 SSE | 151 6.5 264 160 4.8 75.4 3.7
12/27/20 - 1400 68.1 65.2 33 36.7 0.00 59.4 25.7 2.4 SSE | 159 6.2 264 253 4.5 73.7 3.7
12/27/20 - 1300 65.8 60.9 46 42.0 0.00 59.1 25.6 1.4 NE | 43 4.6 266 301 2.7 68.9 3.7
12/27/20 - 1200 61.0 57.4 59 44.4 0.00 58.5 25.7 1.0 NE | 39 3.7 267 188 2.5 65.0 3.7
12/27/20 - 1100 57.6 55.5 61 43.2 0.00 58.5 25.6 1.3 WSW | 258 6.7 268 61 4.8 63.9 3.7
12/27/20 - 1000 55.7 51.8 67 43.8 0.00 58.3 25.7 1.0 NE | 47 3.6 268 70 2.7 62.5 3.7
12/27/20 - 0900 51.9 48.6 81 44.4 0.00 58.7 25.7 0.4 NE | 38 1.9 270 29 1.4 54.9 3.7
12/27/20 - 0800 48.8 47.7 89 45.2 0.00 58.5 25.7 1.1 WSW | 239 4.3 271 -10 3.3 50.7 3.7
12/27/20 - 0700 49.2 47.7 88 45.4 0.00 58.7 25.7 0.7 S | 177 2.7 273 -19 1.8 50.2 3.7
12/27/20 - 0600 49.2 47.6 86 44.2 0.00 58.7 25.7 0.6 WSW | 254 2.7 271 -17 2.0 48.9 3.7
12/27/20 - 0500 49.1 46.8 79 41.7 0.00 58.7 25.7 0.4 S | 174 2.1 270 -17 1.2 47.7 3.7
12/27/20 - 0400 47.5 46.1 75 39.5 0.00 59.0 25.7 0.2 S | 188 1.5 269 -19 0.8 46.2 3.7
12/27/20 - 0300 46.6 45.2 72 37.5 0.00 59.0 25.7 0.3 S | 171 2.0 268 -22 1.2 44.6 3.7
12/27/20 - 0200 46.5 45.6 73 37.7 0.00 58.9 25.7 0.1 SE | 143 1.3 268 -34 1.3 41.8 3.7
12/27/20 - 0100 47.5 46.1 71 37.6 0.00 59.2 25.8 0.3 S | 178 1.9 268 -39 1.6 40.7 3.7
12/27/20 - 0000 48.8 47.2 65 36.7 0.00 59.1 25.8 0.3 SSW | 197 2.0 268 -45 1.3 41.7 3.7
12/26/20 - 2300 51.8 48.7 61 37.3 0.00 59.0 25.8 0.5 SSE | 160 2.2 268 -48 2.1 43.6 3.7
12/26/20 - 2200 55.1 51.8 56 37.7 0.00 59.2 25.8 1.0 SSE | 158 3.1 267 -55 1.4 48.5 3.7
12/26/20 - 2100 56.5 54.8 52 38.0 0.00 58.9 25.8 1.1 SSE | 149 3.0 266 -41 1.5 51.0 3.7
12/26/20 - 2000 58.2 56.2 49 38.0 0.00 59.0 25.8 1.3 SE | 145 3.2 266 -42 1.8 53.5 3.7
12/26/20 - 1900 60.4 58.0 46 38.4 0.00 58.9 25.8 2.1 SE | 130 6.3 266 -50 3.3 56.6 3.7
12/26/20 - 1800 61.6 60.0 43 37.9 0.00 58.5 25.8 1.3 E | 95 5.9 266 -48 3.0 56.6 3.7
12/26/20 - 1700 67.0 61.4 38 38.1 0.00 55.8 25.8 0.8 S | 178 3.8 266 -42 3.1 67.4 3.7
12/26/20 - 1600 70.8 66.9 30 36.2 0.00 55.6 25.7 1.7 E | 83 5.7 264 34 3.3 75.3 3.7
12/26/20 - 1500 71.7 68.8 29 36.8 0.00 55.6 25.6 1.9 E | 90 7.1 263 175 3.9 75.6 3.7
12/26/20 - 1400 70.9 68.8 30 37.1 0.00 55.9 25.6 2.2 E | 101 6.8 263 242 3.9 75.4 3.7
12/26/20 - 1300 70.7 68.6 29 36.1 0.00 56.5 25.5 2.2 NE | 42 5.1 263 298 3.8 75.2 3.7
12/26/20 - 1200 69.0 67.1 28 33.6 0.00 54.7 25.5 1.9 NE | 50 4.8 264 300 2.9 72.7 3.7
12/26/20 - 1100 68.4 62.8 28 31.7 0.00 54.9 25.5 0.7 N | 350 3.2 263 257 2.2 71.2 3.7
12/26/20 - 1000 63.8 56.5 37 32.8 0.00 55.4 25.5 0.5 N | 1 2.3 264 205 1.7 61.2 3.7
12/26/20 - 0900 56.5 41.1 52 32.8 0.00 55.6 25.5 0.3 E | 91 1.6 265 101 1.6 52.0 3.7
12/26/20 - 0800 41.1 37.2 73 30.6 0.00 56.7 25.5 0.2 SSE | 162 1.5 269 -22 0.5 33.3 3.7
12/26/20 - 0700 38.8 37.3 71 29.6 0.00 56.5 25.5 0.2 SSE | 161 1.1 269 -43 0.7 29.4 3.7
12/26/20 - 0600 38.7 37.9 71 29.8 0.00 57.8 25.5 0.1 SSE | 158 1.3 269 -44 0.7 30.5 3.7
12/26/20 - 0500 39.8 38.6 67 29.1 0.00 59.2 25.6 0.2 S | 170 1.5 268 -45 0.8 30.8 3.7
12/26/20 - 0400 40.9 39.7 65 29.4 0.00 58.7 25.6 0.3 S | 189 1.7 268 -46 1.1 31.4 3.7
12/26/20 - 0300 42.0 40.5 62 29.4 0.00 58.8 25.7 0.1 S | 184 1.2 267 -47 1.5 32.5 3.7
12/26/20 - 0200 43.8 41.7 56 28.4 0.00 58.8 25.7 0.2 S | 187 1.5 267 -48 1.5 33.4 3.7
12/26/20 - 0100 45.0 43.0 52 27.8 0.00 58.8 25.7 0.4 S | 169 1.8 266 -49 1.6 35.3 3.7
12/26/20 - 0000 47.6 44.8 46 26.4 0.00 59.0 25.7 0.4 S | 175 2.0 266 -49 1.9 36.4 3.7
12/25/20 - 2300 50.6 47.4 39 24.8 0.00 58.9 25.8 0.2 S | 178 1.1 266 -52 1.7 41.1 3.7
12/25/20 - 2200 57.6 50.6 31 24.1 0.00 58.9 25.8 1.0 S | 191 7.8 265 -59 5.4 52.1 3.7
12/25/20 - 2100 57.7 56.2 27 23.2 0.00 59.0 25.8 3.9 SSW | 213 7.4 264 -64 5.7 50.8 3.7
12/25/20 - 2000 58.1 56.0 30 26.1 0.00 58.7 25.8 2.9 SSW | 198 5.4 264 -65 3.7 51.6 3.7
12/25/20 - 1900 60.7 57.8 32 29.6 0.00 58.7 25.8 2.6 SSW | 210 6.0 264 -65 4.2 54.3 3.7
12/25/20 - 1800 64.3 60.4 31 31.0 0.00 58.7 25.8 2.5 SW | 226 5.4 264 -69 4.3 59.9 3.7
12/25/20 - 1700 71.7 64.1 27 32.1 0.00 58.4 25.8 3.4 SW | 229 9.1 264 -53 6.4 71.6 3.7
12/25/20 - 1600 76.9 71.7 23 33.9 0.00 57.9 25.7 2.7 SW | 226 7.6 263 40 6.5 77.7 3.8
12/25/20 - 1500 76.4 73.5 22 33.9 0.00 57.7 25.6 1.6 S | 180 5.1 263 140 3.9 77.8 3.8
12/25/20 - 1400 76.3 73.7 23 34.3 0.00 57.6 25.5 1.7 WSW | 242 5.7 262 246 4.9 76.8 3.7
12/25/20 - 1300 74.4 71.4 23 33.2 0.00 57.2 25.5 0.7 NNW | 340 4.0 262 248 3.1 72.8 3.7
12/25/20 - 1200 72.0 67.8 25 32.0 0.00 57.2 25.5 1.0 NE | 36 3.7 263 284 3.1 71.1 3.7
12/25/20 - 1100 68.9 64.9 28 32.9 0.00 57.5 25.4 1.4 ENE | 61 4.2 264 252 2.4 67.7 3.7
12/25/20 - 1000 66.4 57.4 34 33.8 0.00 57.5 25.5 0.3 NNE | 33 2.2 264 193 1.4 59.3 3.7
12/25/20 - 0900 57.6 42.1 50 32.8 0.00 57.6 25.5 0.2 NE | 46 1.5 265 101 0.6 51.5 3.7
12/25/20 - 0800 42.1 39.0 66 29.7 0.00 58.2 25.5 0.2 SSE | 159 1.3 268 -23 1.3 35.0 3.7
12/25/20 - 0700 40.3 39.3 64 28.6 0.00 59.3 25.5 0.3 S | 177 2.2 268 -37 2.2 34.1 3.7
12/25/20 - 0600 40.3 39.2 63 28.4 0.00 60.2 25.5 0.4 S | 176 2.1 268 -39 1.8 33.5 3.7
12/25/20 - 0500 40.3 39.4 64 28.6 0.00 60.6 25.6 0.3 SSE | 160 1.8 268 -40 1.7 33.3 3.7
12/25/20 - 0400 41.1 39.9 61 28.3 0.00 60.3 25.6 0.1 S | 180 1.4 268 -39 1.4 33.2 3.7
12/25/20 - 0300 41.0 39.7 63 28.8 0.00 60.0 25.6 0.5 SSE | 166 2.0 268 -40 1.2 32.9 3.7
12/25/20 - 0200 41.9 39.9 61 28.6 0.00 59.8 25.6 0.3 SSE | 166 1.4 268 -41 1.3 33.7 3.7
12/25/20 - 0100 43.0 41.2 58 28.3 0.00 59.4 25.7 0.5 S | 172 2.2 267 -43 1.8 34.3 3.7
12/25/20 - 0000 46.3 42.6 53 28.2 0.00 59.0 25.7 0.2 SSW | 194 3.0 267 -44 2.5 36.7 3.7
12/24/20 - 2300 48.0 45.8 48 27.9 0.00 59.1 25.7 1.3 SSW | 197 3.6 266 -47 2.7 38.8 3.7
12/24/20 - 2200 49.4 46.6 45 28.2 0.00 59.3 25.8 1.1 SSE | 166 3.8 266 -49 3.0 42.3 3.7
12/24/20 - 2100 51.0 47.8 47 29.6 0.00 61.5 25.8 1.0 SSE | 161 3.2 266 -45 2.2 47.5 3.7
12/24/20 - 2000 53.8 50.8 41 29.3 0.00 61.7 25.8 0.9 S | 170 3.2 266 -30 2.6 50.0 3.7
12/24/20 - 1900 53.8 52.4 40 29.5 0.00 59.2 25.8 1.7 SSE | 168 4.7 266 -24 2.9 50.5 3.7
12/24/20 - 1800 54.9 52.6 39 29.2 0.00 59.2 25.8 1.4 S | 181 4.8 266 -29 3.5 51.0 3.7
12/24/20 - 1700 57.2 54.7 33 27.9 0.00 59.2 25.8 1.5 ESE | 108 4.0 265 -21 2.8 56.0 3.7
12/24/20 - 1600 58.2 56.9 29 25.7 0.00 59.2 25.8 1.1 ENE | 58 4.1 264 9 2.1 56.0 3.7
12/24/20 - 1500 58.1 57.4 23 20.6 0.00 59.0 25.8 1.5 ENE | 62 4.5 264 19 2.7 56.9 3.7
12/24/20 - 1400 59.0 55.7 34 28.3 0.00 59.1 25.8 1.5 NE | 48 5.0 264 79 2.6 60.1 3.7
12/24/20 - 1300 60.3 58.4 20 17.9 0.00 59.0 25.8 0.9 ESE | 123 3.5 361 53 1.6 65.1 3.7
12/24/20 - 1200 59.7 58.3 15 10.9 0.00 59.0 25.8 0.8 S | 175 2.8 264 39 2.5 63.8 3.7
12/24/20 - 1100 58.5 55.5 16 11.1 0.00 59.1 25.8 1.5 SSW | 194 3.8 262 44 3.1 62.8 3.7
12/24/20 - 1000 55.6 52.5 22 15.9 0.00 59.6 25.8 0.8 SE | 131 3.2 263 32 2.2 59.2 3.7
12/24/20 - 0900 52.6 48.2 22 13.3 0.00 60.4 25.8 1.1 SE | 146 3.8 263 7 1.4 52.2 3.7
12/24/20 - 0800 49.3 47.7 20 9.5 0.00 59.3 25.8 1.0 S | 173 4.2 263 -21 2.4 45.4 3.7
12/24/20 - 0700 51.2 48.8 16 6.0 0.00 59.6 25.8 1.4 SSE | 159 3.9 263 -35 2.9 45.7 3.7
12/24/20 - 0600 54.8 50.8 11 0.7 0.00 59.5 25.8 1.5 SSE | 163 3.5 262 -43 2.7 46.8 3.7
12/24/20 - 0500 57.0 53.5 9 -2.6 0.00 59.5 25.8 1.2 SSE | 155 5.6 262 -54 3.5 48.2 3.7
12/24/20 - 0400 58.2 54.9 9 -2.6 0.00 59.6 25.9 1.2 SE | 142 5.7 262 -54 4.6 50.5 3.7
12/24/20 - 0300 59.1 57.9 8 -2.7 0.00 59.6 25.9 1.4 N | 11 5.7 262 -55 4.2 52.2 3.7
12/24/20 - 0200 60.2 58.8 7 -3.9 0.00 59.6 25.9 1.9 N | 4 9.0 262 -54 5.5 54.3 3.7
12/24/20 - 0100 60.8 58.6 7 -5.6 0.00 59.9 25.9 1.7 N | 3 11.1 262 -51 5.4 54.0 3.7
12/24/20 - 0000 61.1 59.4 6 -5.9 0.00 59.7 25.9 1.7 NNE | 31 6.7 262 -52 4.1 55.9 3.7
12/23/20 - 2300 61.7 60.5 6 -5.9 0.00 59.9 25.9 2.0 NNE | 21 10.1 262 -53 6.1 57.0 3.7
12/23/20 - 2200 61.8 60.5 6 -5.6 0.00 59.8 26.0 2.1 NNE | 20 7.5 262 -55 3.2 56.2 3.7
12/23/20 - 2100 61.7 60.8 7 -4.0 0.00 59.8 26.0 1.9 NNE | 19 8.2 262 -54 3.7 56.3 3.7
12/23/20 - 2000 61.4 60.3 7 -2.6 0.00 59.9 26.0 1.4 NNE | 31 7.0 262 -55 4.2 54.8 3.7
12/23/20 - 1900 61.0 58.3 9 -0.3 0.00 59.7 26.0 1.2 SE | 129 4.6 262 -54 3.0 52.8 3.7
12/23/20 - 1800 63.6 60.3 7 -1.9 0.00 59.6 26.0 1.7 NE | 47 7.6 262 -62 3.2 57.0 3.7
12/23/20 - 1700 66.1 62.9 6 -3.8 0.00 59.6 26.0 2.5 N | 9 8.8 262 -56 4.7 65.1 3.7
12/23/20 - 1600 68.3 66.0 6 -4.0 0.00 59.3 26.0 3.6 N | 7 10.4 262 -9 8.1 69.4 3.7
12/23/20 - 1500 70.8 68.1 6 -1.2 0.00 59.1 25.9 3.6 N | 2 10.8 261 64 5.3 73.3 3.7
12/23/20 - 1400 71.5 70.1 9 7.8 0.00 59.0 25.9 3.2 N | 9 10.5 261 148 4.7 78.0 3.7
12/23/20 - 1300 71.7 69.4 9 9.3 0.00 58.9 25.8 3.6 N | 11 11.2 262 193 6.4 76.4 3.7
12/23/20 - 1200 69.7 67.2 21 27.2 0.00 58.9 25.8 1.2 NE | 44 4.9 263 211 3.0 76.4 3.7
12/23/20 - 1100 68.8 66.0 12 13.0 0.00 58.9 25.8 3.4 NNE | 26 11.0 263 160 5.7 71.0 3.7
12/23/20 - 1000 66.1 57.4 16 15.6 0.00 59.2 25.8 2.3 NE | 35 9.0 264 89 4.6 61.7 3.7
12/23/20 - 0900 57.3 43.3 77 39.8 0.00 59.1 25.8 0.8 SE | 131 3.7 267 67 2.6 53.3 3.7
12/23/20 - 0800 43.4 41.1 93 40.3 0.00 59.3 25.8 0.5 SSE | 161 2.3 310 19 1.9 41.7 3.7
12/23/20 - 0700 44.0 41.2 93 40.6 0.00 59.2 25.8 0.2 S | 170 1.1 303 -19 1.0 42.8 3.7
12/23/20 - 0600 46.9 43.9 92 43.5 0.00 59.1 25.8 1.3 SW | 226 3.5 273 -17 2.7 49.4 3.7
12/23/20 - 0500 47.5 46.8 92 45.0 0.00 59.2 25.9 0.7 SW | 219 3.0 258 -6 2.4 49.8 3.7
12/23/20 - 0400 48.0 47.0 91 45.0 0.00 58.9 25.9 1.0 SW | 235 3.7 267 -2 2.7 49.8 3.7
12/23/20 - 0300 47.7 46.0 89 43.9 0.00 58.5 25.9 0.8 S | 175 2.8 268 -1 2.0 48.7 3.7
12/23/20 - 0200 46.0 42.5 79 37.8 0.00 57.4 25.9 0.4 SSW | 204 2.3 271 -16 1.6 43.9 3.7
12/23/20 - 0100 44.6 43.9 74 36.5 0.00 58.0 25.9 0.3 SSE | 161 1.1 270 -31 0.8 38.5 3.7
12/23/20 - 0000 45.2 43.8 72 36.0 0.00 57.6 25.9 0.2 SSE | 160 1.4 269 -41 0.5 35.6 3.7
12/22/20 - 2300 46.5 44.9 69 36.2 0.00 57.3 26.0 0.4 SSE | 162 1.5 268 -44 1.0 37.0 3.7
12/22/20 - 2200 48.6 46.4 68 37.4 0.00 58.0 26.0 0.2 SSE | 165 1.1 268 -46 0.5 39.7 3.7
12/22/20 - 2100 49.9 48.3 67 38.6 0.00 58.8 26.0 0.4 SSE | 167 1.7 268 -45 1.2 41.5 3.7
12/22/20 - 2000 52.0 49.6 65 39.7 0.00 59.7 26.0 0.4 SSE | 164 1.7 267 -46 1.3 43.2 3.7
12/22/20 - 1900 54.9 51.8 60 39.5 0.00 59.8 26.0 0.6 S | 169 2.7 267 -50 1.3 45.7 3.7
12/22/20 - 1800 60.4 54.9 52 39.8 0.00 59.6 26.0 0.7 S | 190 3.3 266 -55 2.2 55.5 3.7
12/22/20 - 1700 67.4 60.4 41 39.3 0.00 61.0 26.0 2.1 S | 190 4.5 265 -54 3.3 68.4 3.7
12/22/20 - 1600 73.0 67.2 29 36.3 0.00 59.0 26.0 2.1 E | 87 5.6 263 29 3.0 77.4 3.7
12/22/20 - 1500 74.8 72.8 16 25.5 0.00 58.9 25.9 1.5 NE | 37 4.2 262 144 2.7 79.4 3.8
12/22/20 - 1400 75.5 72.3 15 23.2 0.00 58.6 25.8 1.3 NE | 45 3.6 261 244 4.4 78.7 3.7
12/22/20 - 1300 73.1 70.4 18 26.3 0.00 58.6 25.8 1.7 NE | 36 5.0 261 268 2.7 76.1 3.7
12/22/20 - 1200 71.3 67.9 23 30.1 0.00 58.7 25.8 1.5 NNE | 28 3.7 262 288 2.2 73.7 3.7
12/22/20 - 1100 68.2 63.5 28 32.0 0.00 58.4 25.7 0.9 NNE | 31 4.0 263 254 2.2 69.4 3.7
12/22/20 - 1000 64.1 54.7 41 36.2 0.00 58.7 25.7 0.6 ENE | 58 3.2 264 195 2.2 59.1 3.7
12/22/20 - 0900 55.2 41.6 52 33.6 0.00 58.9 25.8 0.5 ENE | 66 2.0 265 100 1.1 51.7 3.7
12/22/20 - 0800 41.4 37.8 69 29.9 0.00 59.2 25.8 0.3 SE | 143 1.7 268 -27 0.9 31.2 3.7
12/22/20 - 0700 39.8 38.6 66 28.6 0.00 59.2 25.8 0.2 SSE | 157 1.6 268 -46 0.5 30.0 3.7
12/22/20 - 0600 41.4 39.4 61 28.2 0.00 59.3 25.8 0.2 SSE | 168 1.2 267 -45 1.0 31.8 3.7
12/22/20 - 0500 42.3 40.5 59 28.3 0.00 59.5 25.9 0.2 SSE | 167 1.4 267 -44 1.3 33.4 3.7
12/22/20 - 0400 44.2 42.2 52 27.1 0.00 59.7 25.9 0.2 SSE | 167 1.4 266 -45 0.6 35.9 3.7
12/22/20 - 0300 45.8 43.9 46 25.5 0.00 59.7 25.9 0.1 S | 169 1.0 266 -43 0.0 39.4 3.7
12/22/20 - 0200 48.0 45.6 40 24.1 0.00 59.8 26.0 0.3 SSE | 150 1.9 265 -36 1.1 42.1 3.7
12/22/20 - 0100 47.9 46.0 38 22.5 0.00 59.8 26.0 0.6 SSE | 154 2.3 264 -31 1.5 41.6 3.7
12/22/20 - 0000 48.0 45.9 34 20.2 0.00 58.9 26.0 0.5 S | 174 1.8 264 -44 2.1 36.3 3.7
12/21/20 - 2300 49.9 47.5 32 20.3 0.00 57.8 26.0 0.6 SSE | 162 2.4 264 -45 1.1 37.5 3.7
12/21/20 - 2200 51.5 49.7 29 19.5 0.00 57.9 26.1 0.4 SSE | 155 1.4 264 -48 0.8 38.8 3.7
12/21/20 - 2100 53.6 51.6 26 19.0 0.00 57.8 26.1 0.6 SSE | 156 2.5 264 -52 2.0 41.4 3.7
12/21/20 - 2000 55.6 53.5 25 19.5 0.00 57.4 26.1 0.5 S | 170 1.9 263 -55 1.7 44.5 3.7
12/21/20 - 1900 59.8 55.4 22 19.7 0.00 57.7 26.1 0.7 SSE | 167 2.4 263 -59 2.2 50.7 3.7
12/21/20 - 1800 71.2 59.6 15 16.4 0.00 57.7 26.1 1.0 SSW | 204 4.2 262 -68 2.9 62.1 3.7
12/21/20 - 1700 79.5 70.9 10 15.2 0.00 58.5 26.0 1.9 W | 272 6.8 261 -67 4.7 77.0 3.7
12/21/20 - 1600 84.3 79.2 8 14.6 0.00 57.6 26.0 3.5 SSW | 194 8.7 261 28 6.0 84.9 3.7
12/21/20 - 1500 86.6 84.0 7 14.1 0.00 56.0 25.9 1.5 WSW | 239 6.1 261 143 4.5 87.7 3.7
12/21/20 - 1400 84.7 82.0 7 14.3 0.00 56.1 25.8 1.2 N | 8 3.7 260 229 2.1 86.3 3.8
12/21/20 - 1300 85.6 81.1 8 14.5 0.00 55.5 25.7 0.8 NNE | 21 3.1 260 286 3.1 85.4 3.7
12/21/20 - 1200 81.5 79.5 9 15.2 0.00 58.2 25.7 1.0 NNE | 21 3.2 260 288 2.1 83.7 3.7
12/21/20 - 1100 81.4 74.4 10 16.4 0.00 60.8 25.6 1.3 WSW | 254 4.4 261 249 3.4 81.4 3.7
12/21/20 - 1000 74.4 61.8 22 26.5 0.00 61.0 25.7 1.0 NNE | 15 4.3 262 198 3.6 70.0 3.7
12/21/20 - 0900 63.0 44.9 31 25.2 0.00 61.0 25.8 0.1 NE | 45 1.2 262 108 0.8 57.2 3.7
12/21/20 - 0800 45.0 40.6 42 20.7 0.00 60.2 25.7 0.4 S | 191 2.3 265 -20 2.0 37.8 3.7
12/21/20 - 0700 41.4 40.8 40 18.5 0.00 61.0 25.7 0.1 SSW | 193 1.3 265 -37 1.4 33.0 3.7
12/21/20 - 0600 42.1 40.7 40 18.6 0.00 61.4 25.8 0.2 S | 175 1.6 265 -40 1.5 33.6 3.7
12/21/20 - 0500 43.6 41.9 35 16.8 0.00 59.3 25.8 0.3 SSE | 160 1.9 264 -41 1.9 33.7 3.7
12/21/20 - 0400 44.2 42.8 34 16.9 0.00 59.4 25.8 0.2 S | 173 2.1 264 -42 1.7 33.5 3.7
12/21/20 - 0300 45.1 43.9 32 16.1 0.00 59.5 25.9 0.2 S | 181 1.6 264 -44 1.2 34.2 3.7
12/21/20 - 0200 48.3 44.6 28 15.0 0.00 59.1 25.9 0.6 S | 185 3.2 264 -47 3.0 37.1 3.7
12/21/20 - 0100 52.2 47.8 24 14.2 0.00 59.6 25.9 0.7 S | 169 3.2 264 -48 2.7 38.3 3.7
12/21/20 - 0000 53.4 49.6 22 14.0 0.00 59.8 25.9 0.9 SSE | 148 3.1 264 -48 2.4 39.4 3.7
12/20/20 - 2300 51.8 49.1 25 15.4 0.00 59.6 25.9 0.4 SSE | 164 2.1 264 -50 1.7 38.8 3.7
12/20/20 - 2200 54.2 51.7 22 15.4 0.00 59.9 26.0 1.0 SSE | 152 2.7 264 -54 2.2 43.0 3.7
12/20/20 - 2100 54.3 52.9 22 15.7 0.00 59.7 26.0 1.1 SSE | 148 3.3 263 -56 2.2 42.8 3.7
12/20/20 - 2000 56.6 53.2 22 16.7 0.00 59.8 26.0 1.1 SSE | 156 2.9 263 -58 2.3 45.3 3.7
12/20/20 - 1900 59.7 56.5 20 16.8 0.00 59.4 26.0 0.9 SSE | 156 2.5 263 -62 2.4 48.9 3.7
12/20/20 - 1800 65.4 59.7 17 17.2 0.00 59.3 26.0 1.4 SSE | 155 3.2 263 -68 1.8 56.9 3.7
12/20/20 - 1700 78.7 65.3 10 13.2 0.00 59.1 26.0 0.6 SE | 133 2.6 261 -67 2.1 77.1 3.7
12/20/20 - 1600 81.2 78.3 8 13.7 0.00 58.8 25.9 1.7 N | 7 5.2 261 25 2.0 86.1 3.8
12/20/20 - 1500 81.9 80.9 7 12.9 0.00 58.4 25.8 2.2 NNE | 21 6.0 261 144 2.7 87.4 3.7
12/20/20 - 1400 82.0 80.7 8 13.1 0.00 58.3 25.8 2.0 NNE | 20 6.8 260 233 2.2 87.9 3.7
12/20/20 - 1300 80.8 78.4 8 14.4 0.00 58.1 25.7 3.0 NNE | 24 9.4 261 293 3.6 86.4 3.7
12/20/20 - 1200 79.0 76.4 9 15.4 0.00 58.1 25.7 2.6 NNE | 15 6.6 261 296 5.7 83.8 3.7
12/20/20 - 1100 77.1 72.9 11 16.3 0.00 58.0 25.6 1.2 ESE | 119 4.4 261 254 2.6 78.4 3.7
12/20/20 - 1000 73.8 60.6 20 23.5 0.00 58.3 25.7 0.8 ESE | 105 4.1 262 201 2.4 66.2 3.7
12/20/20 - 0900 61.1 44.4 33 24.2 0.00 58.4 25.7 0.8 ESE | 103 4.0 263 108 3.1 53.7 3.7
12/20/20 - 0800 44.5 38.4 43 20.3 0.00 58.8 25.7 0.8 SSE | 166 3.1 266 -24 2.2 35.0 3.7
12/20/20 - 0700 39.4 38.0 47 20.2 0.00 58.9 25.7 0.6 S | 169 2.4 266 -43 2.0 28.5 3.7
12/20/20 - 0600 41.4 38.5 46 20.3 0.00 59.0 25.8 0.2 S | 175 1.8 266 -46 1.9 29.1 3.7
12/20/20 - 0500 42.9 40.5 40 19.3 0.00 59.1 25.8 0.6 SSE | 159 2.6 266 -48 1.9 31.9 3.7
12/20/20 - 0400 46.0 42.8 35 18.6 0.00 59.3 25.8 0.6 SSE | 160 2.6 266 -48 1.7 33.0 3.7
12/20/20 - 0300 43.9 41.9 40 19.7 0.00 59.5 25.9 0.4 S | 182 1.8 266 -47 1.9 30.8 3.7
12/20/20 - 0200 44.2 42.5 39 20.1 0.00 59.7 25.9 0.6 SSE | 164 2.4 266 -49 2.3 32.9 3.7
12/20/20 - 0100 45.6 44.1 38 20.8 0.00 59.8 26.0 0.5 SSE | 160 2.2 266 -50 2.0 34.2 3.7
12/20/20 - 0000 47.4 44.6 37 21.2 0.00 59.8 26.0 0.8 SE | 140 2.5 265 -52 2.9 36.2 3.7
12/19/20 - 2300 48.3 44.7 37 21.8 0.00 60.0 26.0 0.7 SSE | 166 2.7 265 -53 1.9 36.3 3.7
12/19/20 - 2200 48.8 46.8 37 22.6 0.00 59.9 26.0 0.7 SSE | 156 3.4 265 -54 2.8 37.2 3.7
12/19/20 - 2100 51.0 48.3 34 22.7 0.00 59.9 26.0 1.1 S | 172 4.6 265 -57 4.0 40.4 3.7
12/19/20 - 2000 54.0 50.3 32 22.9 0.00 59.8 26.1 1.3 S | 181 4.3 264 -59 3.1 42.5 3.7
12/19/20 - 1900 60.0 52.8 24 19.7 0.00 59.7 26.1 0.8 S | 186 3.0 264 -62 1.7 48.0 3.7
12/19/20 - 1800 65.6 59.4 18 19.2 0.00 59.7 26.1 0.7 S | 175 2.5 263 -70 2.2 57.2 3.7
12/19/20 - 1700 71.2 65.3 17 22.1 0.00 59.3 26.1 1.5 ENE | 61 7.1 263 -67 2.0 71.4 3.7
12/19/20 - 1600 74.2 70.9 13 18.8 0.00 59.0 26.1 2.4 NNE | 17 7.5 262 29 3.6 77.0 3.7
12/19/20 - 1500 75.7 73.7 13 19.8 0.00 58.9 26.0 1.4 ENE | 57 3.6 261 146 2.3 78.0 3.7
12/19/20 - 1400 75.1 72.5 13 19.4 0.00 58.7 25.9 2.5 ESE | 117 8.1 261 241 5.2 77.2 3.7
12/19/20 - 1300 73.7 71.8 13 18.7 0.00 58.6 25.8 2.2 ENE | 60 5.8 261 295 4.6 76.2 3.7
12/19/20 - 1200 72.4 69.6 13 16.7 0.00 58.6 25.8 3.0 N | 8 9.3 261 298 3.9 75.0 3.7
12/19/20 - 1100 70.9 65.8 15 19.0 0.00 58.6 25.8 1.4 NE | 52 6.9 262 252 2.5 71.9 3.7
12/19/20 - 1000 66.0 60.4 21 22.5 0.00 58.8 25.8 1.1 ENE | 70 4.4 262 195 2.4 62.6 3.7
12/19/20 - 0900 60.9 45.3 31 23.9 0.00 58.9 25.8 1.1 E | 99 3.1 263 103 1.4 56.3 3.7
12/19/20 - 0800 45.3 40.8 42 20.9 0.00 59.1 25.8 0.7 SE | 146 2.2 266 -26 1.8 35.4 3.7
12/19/20 - 0700 43.2 40.8 40 19.3 0.00 59.2 25.8 0.6 SSE | 164 2.3 266 -47 2.2 36.2 3.7
12/19/20 - 0600 46.1 42.6 36 19.1 0.00 59.4 25.9 1.1 SSE | 150 3.8 266 -50 2.8 36.6 3.7
12/19/20 - 0500 51.4 45.7 30 17.7 0.00 59.6 25.9 1.7 SSE | 158 4.5 265 -50 2.6 38.2 3.7
12/19/20 - 0400 53.8 45.8 27 16.9 0.00 59.6 26.0 1.6 S | 173 4.6 265 -54 3.5 43.5 3.7
12/19/20 - 0300 54.4 47.1 25 16.0 0.00 58.2 26.0 2.0 SSW | 203 5.0 264 -55 3.6 42.5 3.7
12/19/20 - 0200 50.8 47.4 28 16.8 0.00 60.1 26.0 1.4 SSE | 164 3.7 265 -53 2.5 37.6 3.7
12/19/20 - 0100 49.8 46.1 29 17.3 0.00 59.9 26.0 1.3 SSE | 163 4.6 264 -54 3.6 38.6 3.7
12/19/20 - 0000 50.1 46.9 30 18.1 0.00 60.2 26.0 1.1 SSE | 153 3.6 265 -56 2.2 39.8 3.7
12/18/20 - 2300 50.0 47.9 30 18.8 0.00 60.2 26.1 1.7 SSE | 156 4.6 264 -58 3.5 40.4 3.7
12/18/20 - 2200 54.7 49.1 26 18.5 0.00 60.2 26.1 1.5 SSE | 158 5.3 264 -62 3.5 42.4 3.7
12/18/20 - 2100 58.4 51.2 24 18.0 0.00 59.9 26.1 1.2 SSE | 166 3.4 264 -65 3.0 49.7 3.7
12/18/20 - 2000 61.1 58.4 18 17.1 0.00 60.1 26.1 2.0 NE | 37 7.9 264 -75 3.7 54.2 3.7
12/18/20 - 1900 61.9 60.6 18 17.5 0.00 60.0 26.1 1.9 N | 354 7.4 264 -77 6.3 55.3 3.7
12/18/20 - 1800 63.5 61.7 18 18.2 0.00 59.8 26.1 2.2 N | 354 8.9 263 -80 6.4 59.0 3.7
12/18/20 - 1700 65.9 63.4 17 19.3 0.00 59.6 26.1 3.5 N | 2 10.2 263 -69 5.2 65.5 3.7
12/18/20 - 1600 67.4 65.8 17 20.2 0.00 59.7 26.1 3.7 N | 357 12.2 263 34 7.8 70.3 3.7
12/18/20 - 1500 68.3 66.6 17 20.9 0.00 59.2 26.1 4.0 N | 1 14.3 262 156 7.2 71.7 3.7
12/18/20 - 1400 67.8 66.6 17 21.5 0.00 59.0 26.0 5.2 N | 5 13.9 262 249 6.4 73.3 3.7
12/18/20 - 1300 68.3 66.8 19 23.2 0.00 58.8 25.9 4.1 N | 4 10.0 262 302 5.8 73.2 3.7
12/18/20 - 1200 68.0 64.9 20 24.0 0.00 59.0 25.9 4.1 N | 5 11.6 263 305 5.0 70.8 3.7
12/18/20 - 1100 66.0 62.8 22 24.3 0.00 59.2 25.9 3.5 N | 0 13.1 264 259 7.8 69.0 3.7
12/18/20 - 1000 62.9 59.1 25 25.3 0.00 59.0 25.9 3.4 N | 1 13.8 264 197 5.7 62.6 3.7
12/18/20 - 0900 59.5 55.3 30 26.1 0.00 59.1 25.9 3.9 SW | 223 9.4 264 97 7.2 59.3 3.7
12/18/20 - 0800 55.3 52.8 34 25.8 0.00 59.5 26.0 2.2 NNE | 19 8.8 266 -38 5.6 48.6 3.7
12/18/20 - 0700 53.3 47.9 38 27.4 0.00 60.3 25.9 1.9 E | 84 9.2 266 -59 5.8 45.0 3.7
12/18/20 - 0600 48.0 42.5 62 32.8 0.00 60.7 26.0 1.2 SSE | 166 5.2 268 -53 3.0 36.9 3.7
12/18/20 - 0500 48.2 42.6 57 30.6 0.00 60.6 26.0 0.9 S | 176 5.3 268 -54 2.6 40.5 3.7
12/18/20 - 0400 54.7 48.3 40 28.1 0.00 59.8 26.0 1.5 E | 82 6.2 267 -59 3.8 46.0 3.7
12/18/20 - 0300 54.0 49.7 41 28.7 0.00 60.2 26.1 2.4 WSW | 254 7.7 267 -59 5.3 46.5 3.7
12/18/20 - 0200 53.9 45.1 51 29.9 0.00 61.6 26.1 1.2 NW | 315 10.0 266 -54 3.9 45.5 3.7
12/18/20 - 0100 46.7 44.7 56 30.8 0.00 60.2 26.1 1.2 S | 179 3.4 267 -54 2.5 38.7 3.7
12/18/20 - 0000 51.2 46.1 52 30.9 0.00 60.5 26.1 1.6 S | 183 6.2 267 -55 4.2 41.2 3.7
12/17/20 - 2300 53.8 47.8 45 30.5 0.00 60.4 26.1 1.7 WSW | 239 5.2 267 -59 3.5 46.0 3.7
12/17/20 - 2200 55.7 51.8 41 31.0 0.00 60.3 26.1 1.2 W | 280 5.7 266 -64 4.7 51.1 3.7
12/17/20 - 2100 56.3 55.4 39 31.5 0.00 60.4 26.2 2.8 N | 353 10.9 266 -69 6.8 53.0 3.7
12/17/20 - 2000 57.5 55.9 39 32.3 0.00 60.2 26.1 2.7 N | 6 11.0 266 -69 5.7 54.6 3.7
12/17/20 - 1900 58.1 57.3 40 33.6 0.00 60.3 26.2 3.1 N | 355 11.4 266 -69 9.8 54.8 3.7
12/17/20 - 1800 58.6 57.0 56 41.9 0.00 60.0 26.1 1.7 NE | 36 6.0 267 -63 4.0 60.0 3.7
12/17/20 - 1700 62.3 58.5 58 45.5 0.00 59.8 26.1 1.3 NNE | 25 3.7 268 -30 1.8 63.3 3.7
12/17/20 - 1600 64.6 60.9 50 43.4 0.00 59.6 26.1 1.0 N | 358 3.3 266 32 2.5 69.8 3.7
12/17/20 - 1500 64.0 61.4 50 43.7 0.00 59.5 26.1 4.1 WSW | 255 11.0 266 166 8.3 69.5 3.7
12/17/20 - 1400 64.2 60.8 53 45.4 0.00 59.3 26.0 5.4 W | 273 11.8 266 253 10.2 69.9 3.7
12/17/20 - 1300 64.8 62.2 53 46.2 0.00 59.2 26.0 4.2 W | 279 11.3 266 274 8.2 73.4 3.7
12/17/20 - 1200 64.6 62.6 47 43.2 0.00 59.0 26.0 1.9 NE | 49 5.4 266 236 2.7 72.9 3.7
12/17/20 - 1100 62.9 59.5 34 32.6 0.00 59.2 25.9 1.5 NE | 38 3.7 264 253 2.3 66.7 3.7
12/17/20 - 1000 59.6 51.3 38 31.7 0.00 59.3 25.9 0.6 NE | 34 2.9 264 181 1.9 57.4 3.7
12/17/20 - 0900 51.2 46.4 56 32.4 0.00 59.3 25.9 0.4 SSE | 163 3.0 266 15 1.8 44.8 3.7
12/17/20 - 0800 46.8 45.5 57 31.4 0.00 58.7 25.9 0.4 SSE | 166 1.8 267 -13 1.1 44.5 3.7
12/17/20 - 0700 47.0 45.3 54 30.6 0.00 60.8 25.9 0.4 ESE | 114 3.1 267 -22 1.4 45.4 3.7
12/17/20 - 0600 46.1 44.4 56 30.2 0.00 60.4 26.0 0.3 E | 88 1.2 267 -14 0.8 44.0 3.7
12/17/20 - 0500 44.8 41.9 58 29.4 0.00 59.8 26.0 0.4 SSE | 161 2.9 267 -22 1.2 40.7 3.7
12/17/20 - 0400 44.2 42.2 57 29.0 0.00 59.8 26.0 0.2 SSE | 154 1.3 267 -39 0.0 37.4 3.7
12/17/20 - 0300 45.3 43.9 55 29.5 0.00 58.4 26.1 0.4 SSE | 147 1.6 267 -37 0.9 38.6 3.7
12/17/20 - 0200 45.4 44.5 54 29.2 0.00 60.3 26.1 0.6 S | 175 2.0 266 -35 1.4 38.7 3.7
12/17/20 - 0100 46.6 44.5 52 28.9 0.00 60.5 26.1 0.1 SE | 138 1.0 266 -38 0.4 38.0 3.7
12/17/20 - 0000 47.2 45.8 52 29.6 0.00 59.0 26.1 0.2 SSE | 157 1.2 266 -40 0.7 38.6 3.7
12/16/20 - 2300 48.5 47.2 49 30.0 0.00 60.3 26.1 0.3 SSE | 163 1.5 266 -40 1.7 41.4 3.7
12/16/20 - 2200 49.7 48.3 48 29.9 0.00 60.4 26.1 0.4 SSE | 159 1.4 266 -41 0.9 40.2 3.7
12/16/20 - 2100 52.2 49.3 45 29.8 0.00 60.2 26.1 0.8 SSE | 163 2.4 266 -50 2.2 42.0 3.7
12/16/20 - 2000 57.6 51.9 38 29.2 0.00 59.6 26.1 0.4 S | 182 2.5 265 -53 1.8 47.9 3.7
12/16/20 - 1900 60.8 56.0 32 28.9 0.00 60.0 26.2 1.2 S | 184 4.0 264 -57 3.3 48.9 3.7
12/16/20 - 1800 61.8 57.0 32 28.8 0.00 59.9 26.2 0.7 SSE | 160 1.8 264 -60 1.7 54.6 3.7
12/16/20 - 1700 73.0 61.8 24 28.2 0.00 59.6 26.1 0.6 S | 172 2.1 264 -53 1.7 70.1 3.7
12/16/20 - 1600 74.8 72.8 16 24.8 0.00 59.9 26.1 0.7 SSE | 160 3.0 262 28 2.2 78.2 3.7
12/16/20 - 1500 77.2 74.0 15 23.9 0.00 59.0 26.0 1.4 N | 11 5.2 261 141 4.3 80.0 3.7
12/16/20 - 1400 77.2 73.9 14 22.4 0.00 59.2 26.0 1.1 NNW | 338 4.1 261 234 3.3 80.1 3.7
12/16/20 - 1300 74.0 71.9 14 21.3 0.00 58.9 25.9 1.9 NNE | 15 5.5 261 290 3.9 77.7 3.7
12/16/20 - 1200 73.2 69.0 15 20.8 0.00 58.0 25.9 1.6 SW | 233 9.0 261 296 4.6 76.3 3.7
12/16/20 - 1100 69.0 65.6 16 20.0 0.00 58.9 25.8 1.0 NNE | 18 3.4 262 253 2.5 72.2 3.7
12/16/20 - 1000 66.0 59.4 18 19.3 0.00 58.8 25.8 1.2 SE | 144 3.8 262 196 2.7 62.1 3.7
12/16/20 - 0900 59.4 44.0 34 25.1 0.00 59.3 25.9 0.3 ENE | 77 2.5 263 107 1.1 53.3 3.7
12/16/20 - 0800 44.1 39.1 47 22.1 0.00 58.5 25.9 0.6 SE | 144 2.0 266 -21 1.8 34.1 3.7
12/16/20 - 0700 40.9 38.7 45 20.3 0.00 59.5 25.9 0.4 SSW | 195 2.4 266 -45 1.9 32.2 3.7
12/16/20 - 0600 43.0 40.8 40 19.7 0.00 59.4 26.0 0.6 SSE | 154 3.0 266 -46 2.8 33.4 3.7
12/16/20 - 0500 43.5 42.2 38 19.1 0.00 59.5 26.0 0.3 SSE | 157 1.7 266 -46 1.9 34.6 3.7
12/16/20 - 0400 46.5 43.4 36 19.4 0.00 59.9 26.0 0.7 SSE | 150 2.6 266 -48 1.4 36.5 3.7
12/16/20 - 0300 52.6 45.5 30 18.0 0.00 60.2 26.1 1.1 SSE | 147 3.2 265 -48